sensor_id;sensor_type;location;lat;lon;timestamp;P1;durP1;ratioP1;P2;durP2;ratioP2
21733;SDS011;11029;47.820;10.534;2022-10-12T00:02:16;23.38;;;11.85;;
21733;SDS011;11029;47.820;10.534;2022-10-12T00:04:43;21.40;;;12.15;;
21733;SDS011;11029;47.820;10.534;2022-10-12T00:07:09;21.88;;;11.52;;
21733;SDS011;11029;47.820;10.534;2022-10-12T00:09:36;25.48;;;13.15;;
21733;SDS011;11029;47.820;10.534;2022-10-12T00:12:03;23.10;;;12.10;;
21733;SDS011;11029;47.820;10.534;2022-10-12T00:14:30;21.02;;;12.50;;
21733;SDS011;11029;47.820;10.534;2022-10-12T00:16:56;21.48;;;12.55;;
21733;SDS011;11029;47.820;10.534;2022-10-12T00:19:23;18.20;;;11.70;;
21733;SDS011;11029;47.820;10.534;2022-10-12T00:21:50;18.45;;;12.38;;
21733;SDS011;11029;47.820;10.534;2022-10-12T00:24:17;20.63;;;12.00;;
21733;SDS011;11029;47.820;10.534;2022-10-12T00:26:43;19.38;;;12.52;;
21733;SDS011;11029;47.820;10.534;2022-10-12T00:29:10;23.15;;;13.15;;
21733;SDS011;11029;47.820;10.534;2022-10-12T00:31:37;19.55;;;13.15;;
21733;SDS011;11029;47.820;10.534;2022-10-12T00:34:04;21.80;;;13.38;;
21733;SDS011;11029;47.820;10.534;2022-10-12T00:36:31;21.30;;;13.77;;
21733;SDS011;11029;47.820;10.534;2022-10-12T00:39:01;21.45;;;14.52;;
21733;SDS011;11029;47.820;10.534;2022-10-12T00:41:31;24.85;;;15.15;;
21733;SDS011;11029;47.820;10.534;2022-10-12T00:44:01;29.30;;;14.82;;
21733;SDS011;11029;47.820;10.534;2022-10-12T00:46:41;22.90;;;14.45;;
21733;SDS011;11029;47.820;10.534;2022-10-12T00:51:43;27.88;;;14.93;;
21733;SDS011;11029;47.820;10.534;2022-10-12T00:54:15;28.90;;;15.43;;
21733;SDS011;11029;47.820;10.534;2022-10-12T00:56:46;24.15;;;14.98;;
21733;SDS011;11029;47.820;10.534;2022-10-12T00:59:18;25.85;;;15.88;;
21733;SDS011;11029;47.820;10.534;2022-10-12T01:01:48;28.38;;;15.55;;
21733;SDS011;11029;47.820;10.534;2022-10-12T01:04:15;23.65;;;13.85;;
21733;SDS011;11029;47.820;10.534;2022-10-12T01:06:42;23.80;;;14.93;;
21733;SDS011;11029;47.820;10.534;2022-10-12T01:09:09;24.73;;;14.20;;
21733;SDS011;11029;47.820;10.534;2022-10-12T01:11:36;23.15;;;13.98;;
21733;SDS011;11029;47.820;10.534;2022-10-12T01:14:02;22.25;;;14.48;;
21733;SDS011;11029;47.820;10.534;2022-10-12T01:19:06;25.65;;;15.73;;
21733;SDS011;11029;47.820;10.534;2022-10-12T01:21:55;24.02;;;14.10;;
21733;SDS011;11029;47.820;10.534;2022-10-12T01:24:47;24.90;;;15.45;;
21733;SDS011;11029;47.820;10.534;2022-10-12T01:35:06;23.30;;;14.75;;
21733;SDS011;11029;47.820;10.534;2022-10-12T01:37:49;27.88;;;15.23;;
21733;SDS011;11029;47.820;10.534;2022-10-12T01:40:30;26.67;;;14.80;;
21733;SDS011;11029;47.820;10.534;2022-10-12T01:43:02;24.60;;;15.20;;
21733;SDS011;11029;47.820;10.534;2022-10-12T01:45:29;22.73;;;15.10;;
21733;SDS011;11029;47.820;10.534;2022-10-12T01:47:56;24.90;;;15.45;;
21733;SDS011;11029;47.820;10.534;2022-10-12T01:50:24;24.05;;;15.45;;
21733;SDS011;11029;47.820;10.534;2022-10-12T01:58:29;26.58;;;15.85;;
21733;SDS011;11029;47.820;10.534;2022-10-12T02:05:09;28.38;;;17.13;;
21733;SDS011;11029;47.820;10.534;2022-10-12T02:07:56;25.70;;;16.45;;
21733;SDS011;11029;47.820;10.534;2022-10-12T02:10:11;29.58;;;16.70;;
21733;SDS011;11029;47.820;10.534;2022-10-12T02:12:43;27.88;;;16.48;;
21733;SDS011;11029;47.820;10.534;2022-10-12T02:15:13;30.42;;;17.30;;
21733;SDS011;11029;47.820;10.534;2022-10-12T02:17:42;30.50;;;18.05;;
21733;SDS011;11029;47.820;10.534;2022-10-12T02:20:12;28.13;;;17.80;;
21733;SDS011;11029;47.820;10.534;2022-10-12T02:22:42;28.92;;;17.67;;
21733;SDS011;11029;47.820;10.534;2022-10-12T02:25:13;29.45;;;17.65;;
21733;SDS011;11029;47.820;10.534;2022-10-12T02:27:44;27.17;;;18.25;;
21733;SDS011;11029;47.820;10.534;2022-10-12T02:30:35;29.73;;;17.70;;
21733;SDS011;11029;47.820;10.534;2022-10-12T02:33:14;28.35;;;17.30;;
21733;SDS011;11029;47.820;10.534;2022-10-12T02:36:04;29.15;;;17.10;;
21733;SDS011;11029;47.820;10.534;2022-10-12T02:38:48;30.33;;;16.42;;
21733;SDS011;11029;47.820;10.534;2022-10-12T02:41:23;31.35;;;18.08;;
21733;SDS011;11029;47.820;10.534;2022-10-12T02:43:59;28.48;;;17.17;;
21733;SDS011;11029;47.820;10.534;2022-10-12T02:46:27;29.60;;;18.55;;
21733;SDS011;11029;47.820;10.534;2022-10-12T02:48:55;29.95;;;18.00;;
21733;SDS011;11029;47.820;10.534;2022-10-12T02:51:24;28.40;;;17.67;;
21733;SDS011;11029;47.820;10.534;2022-10-12T02:53:53;28.02;;;17.35;;
21733;SDS011;11029;47.820;10.534;2022-10-12T02:56:21;27.30;;;16.10;;
21733;SDS011;11029;47.820;10.534;2022-10-12T02:58:49;28.58;;;17.10;;
21733;SDS011;11029;47.820;10.534;2022-10-12T03:01:16;27.05;;;15.82;;
21733;SDS011;11029;47.820;10.534;2022-10-12T03:03:43;24.80;;;15.15;;
21733;SDS011;11029;47.820;10.534;2022-10-12T03:06:10;27.30;;;15.63;;
21733;SDS011;11029;47.820;10.534;2022-10-12T03:08:38;32.65;;;17.02;;
21733;SDS011;11029;47.820;10.534;2022-10-12T03:11:05;30.65;;;16.50;;
21733;SDS011;11029;47.820;10.534;2022-10-12T03:13:34;27.73;;;15.75;;
21733;SDS011;11029;47.820;10.534;2022-10-12T03:16:04;26.48;;;15.15;;
21733;SDS011;11029;47.820;10.534;2022-10-12T03:21:00;25.05;;;15.18;;
21733;SDS011;11029;47.820;10.534;2022-10-12T03:23:27;29.50;;;15.43;;
21733;SDS011;11029;47.820;10.534;2022-10-12T03:25:54;26.48;;;15.38;;
21733;SDS011;11029;47.820;10.534;2022-10-12T03:28:21;24.15;;;15.65;;
21733;SDS011;11029;47.820;10.534;2022-10-12T03:30:47;25.95;;;15.50;;
21733;SDS011;11029;47.820;10.534;2022-10-12T03:33:14;25.08;;;15.90;;
21733;SDS011;11029;47.820;10.534;2022-10-12T03:35:44;26.50;;;15.95;;
21733;SDS011;11029;47.820;10.534;2022-10-12T03:38:12;33.00;;;17.75;;
21733;SDS011;11029;47.820;10.534;2022-10-12T03:40:40;31.77;;;18.23;;
21733;SDS011;11029;47.820;10.534;2022-10-12T03:43:07;31.23;;;18.05;;
21733;SDS011;11029;47.820;10.534;2022-10-12T03:45:34;34.28;;;19.38;;
21733;SDS011;11029;47.820;10.534;2022-10-12T03:48:03;31.40;;;19.00;;
21733;SDS011;11029;47.820;10.534;2022-10-12T03:50:30;32.92;;;18.02;;
21733;SDS011;11029;47.820;10.534;2022-10-12T03:53:00;31.25;;;18.25;;
21733;SDS011;11029;47.820;10.534;2022-10-12T03:55:27;30.63;;;18.85;;
21733;SDS011;11029;47.820;10.534;2022-10-12T03:57:54;30.73;;;17.05;;
21733;SDS011;11029;47.820;10.534;2022-10-12T04:00:21;32.65;;;17.88;;
21733;SDS011;11029;47.820;10.534;2022-10-12T04:02:48;29.67;;;17.67;;
21733;SDS011;11029;47.820;10.534;2022-10-12T04:05:14;30.27;;;18.38;;
21733;SDS011;11029;47.820;10.534;2022-10-12T04:07:41;28.85;;;18.05;;
21733;SDS011;11029;47.820;10.534;2022-10-12T04:10:08;30.38;;;17.77;;
21733;SDS011;11029;47.820;10.534;2022-10-12T04:12:35;26.77;;;17.48;;
21733;SDS011;11029;47.820;10.534;2022-10-12T04:15:02;29.88;;;17.13;;
21733;SDS011;11029;47.820;10.534;2022-10-12T04:17:29;31.67;;;18.52;;
21733;SDS011;11029;47.820;10.534;2022-10-12T04:19:56;29.85;;;18.23;;
21733;SDS011;11029;47.820;10.534;2022-10-12T04:22:23;29.77;;;16.75;;
21733;SDS011;11029;47.820;10.534;2022-10-12T04:24:49;29.52;;;17.95;;
21733;SDS011;11029;47.820;10.534;2022-10-12T04:27:16;32.30;;;17.98;;
21733;SDS011;11029;47.820;10.534;2022-10-12T04:29:43;31.70;;;18.65;;
21733;SDS011;11029;47.820;10.534;2022-10-12T04:32:10;30.60;;;18.35;;
21733;SDS011;11029;47.820;10.534;2022-10-12T04:34:38;32.50;;;18.80;;
21733;SDS011;11029;47.820;10.534;2022-10-12T04:37:05;33.47;;;19.15;;
21733;SDS011;11029;47.820;10.534;2022-10-12T04:39:31;31.80;;;19.13;;
21733;SDS011;11029;47.820;10.534;2022-10-12T04:41:58;33.55;;;18.98;;
21733;SDS011;11029;47.820;10.534;2022-10-12T04:44:25;36.00;;;19.73;;
21733;SDS011;11029;47.820;10.534;2022-10-12T04:46:57;28.38;;;17.48;;
21733;SDS011;11029;47.820;10.534;2022-10-12T04:49:26;28.58;;;17.35;;
21733;SDS011;11029;47.820;10.534;2022-10-12T04:51:52;31.20;;;18.88;;
21733;SDS011;11029;47.820;10.534;2022-10-12T04:54:19;32.22;;;20.83;;
21733;SDS011;11029;47.820;10.534;2022-10-12T04:56:46;30.05;;;18.40;;
21733;SDS011;11029;47.820;10.534;2022-10-12T04:59:13;30.90;;;17.63;;
21733;SDS011;11029;47.820;10.534;2022-10-12T05:01:40;26.50;;;15.13;;
21733;SDS011;11029;47.820;10.534;2022-10-12T05:04:07;28.50;;;16.05;;
21733;SDS011;11029;47.820;10.534;2022-10-12T05:06:34;26.20;;;15.68;;
21733;SDS011;11029;47.820;10.534;2022-10-12T05:09:01;26.45;;;15.40;;
21733;SDS011;11029;47.820;10.534;2022-10-12T05:11:28;23.88;;;14.20;;
21733;SDS011;11029;47.820;10.534;2022-10-12T05:13:54;24.33;;;14.70;;
21733;SDS011;11029;47.820;10.534;2022-10-12T05:16:21;19.85;;;13.23;;
21733;SDS011;11029;47.820;10.534;2022-10-12T05:18:48;22.92;;;14.25;;
21733;SDS011;11029;47.820;10.534;2022-10-12T05:21:15;21.20;;;13.85;;
21733;SDS011;11029;47.820;10.534;2022-10-12T05:23:41;21.73;;;13.10;;
21733;SDS011;11029;47.820;10.534;2022-10-12T05:26:08;22.00;;;14.02;;
21733;SDS011;11029;47.820;10.534;2022-10-12T05:28:35;24.30;;;13.15;;
21733;SDS011;11029;47.820;10.534;2022-10-12T05:31:06;21.10;;;13.23;;
21733;SDS011;11029;47.820;10.534;2022-10-12T05:33:33;20.98;;;11.75;;
21733;SDS011;11029;47.820;10.534;2022-10-12T05:36:00;15.98;;;10.68;;
21733;SDS011;11029;47.820;10.534;2022-10-12T05:38:27;14.65;;;9.73;;
21733;SDS011;11029;47.820;10.534;2022-10-12T05:40:53;13.63;;;10.13;;
21733;SDS011;11029;47.820;10.534;2022-10-12T05:43:26;18.40;;;10.93;;
21733;SDS011;11029;47.820;10.534;2022-10-12T05:45:53;13.63;;;9.15;;
21733;SDS011;11029;47.820;10.534;2022-10-12T05:48:19;13.27;;;9.73;;
21733;SDS011;11029;47.820;10.534;2022-10-12T05:50:50;15.00;;;9.45;;
21733;SDS011;11029;47.820;10.534;2022-10-12T05:53:20;22.20;;;8.70;;
21733;SDS011;11029;47.820;10.534;2022-10-12T05:55:54;31.17;;;10.07;;
21733;SDS011;11029;47.820;10.534;2022-10-12T05:58:23;59.78;;;10.30;;
21733;SDS011;11029;47.820;10.534;2022-10-12T06:00:51;21.25;;;9.05;;
21733;SDS011;11029;47.820;10.534;2022-10-12T06:03:18;75.07;;;10.48;;
21733;SDS011;11029;47.820;10.534;2022-10-12T06:05:50;24.45;;;10.77;;
21733;SDS011;11029;47.820;10.534;2022-10-12T06:08:17;25.98;;;10.20;;
21733;SDS011;11029;47.820;10.534;2022-10-12T06:10:48;43.40;;;10.30;;
21733;SDS011;11029;47.820;10.534;2022-10-12T06:13:16;24.50;;;10.93;;
21733;SDS011;11029;47.820;10.534;2022-10-12T06:15:45;22.80;;;11.95;;
21733;SDS011;11029;47.820;10.534;2022-10-12T06:18:12;25.08;;;12.18;;
21733;SDS011;11029;47.820;10.534;2022-10-12T06:20:40;33.67;;;12.50;;
21733;SDS011;11029;47.820;10.534;2022-10-12T06:23:10;63.83;;;13.38;;
21733;SDS011;11029;47.820;10.534;2022-10-12T06:25:37;54.47;;;13.27;;
21733;SDS011;11029;47.820;10.534;2022-10-12T06:28:05;72.40;;;13.98;;
21733;SDS011;11029;47.820;10.534;2022-10-12T06:30:32;86.65;;;14.77;;
21733;SDS011;11029;47.820;10.534;2022-10-12T06:32:58;53.92;;;13.95;;
21733;SDS011;11029;47.820;10.534;2022-10-12T06:35:25;75.85;;;13.77;;
21733;SDS011;11029;47.820;10.534;2022-10-12T06:37:52;69.40;;;15.20;;
21733;SDS011;11029;47.820;10.534;2022-10-12T06:40:19;84.82;;;14.18;;
21733;SDS011;11029;47.820;10.534;2022-10-12T06:42:47;50.22;;;14.90;;
21733;SDS011;11029;47.820;10.534;2022-10-12T06:45:14;94.45;;;15.70;;
21733;SDS011;11029;47.820;10.534;2022-10-12T06:47:41;53.33;;;15.73;;
21733;SDS011;11029;47.820;10.534;2022-10-12T06:50:08;51.00;;;16.17;;
21733;SDS011;11029;47.820;10.534;2022-10-12T06:52:36;103.55;;;17.00;;
21733;SDS011;11029;47.820;10.534;2022-10-12T06:55:03;59.60;;;16.23;;
21733;SDS011;11029;47.820;10.534;2022-10-12T06:57:31;90.32;;;18.90;;
21733;SDS011;11029;47.820;10.534;2022-10-12T06:59:58;172.38;;;76.22;;
21733;SDS011;11029;47.820;10.534;2022-10-12T07:02:24;153.65;;;62.72;;
21733;SDS011;11029;47.820;10.534;2022-10-12T07:04:51;670.15;;;340.95;;
21733;SDS011;11029;47.820;10.534;2022-10-12T07:07:18;307.50;;;139.15;;
21733;SDS011;11029;47.820;10.534;2022-10-12T07:09:45;214.82;;;96.28;;
21733;SDS011;11029;47.820;10.534;2022-10-12T07:12:12;58.70;;;33.10;;
21733;SDS011;11029;47.820;10.534;2022-10-12T07:14:38;58.08;;;30.13;;
21733;SDS011;11029;47.820;10.534;2022-10-12T07:17:05;95.05;;;39.60;;
21733;SDS011;11029;47.820;10.534;2022-10-12T07:19:32;41.95;;;25.52;;
21733;SDS011;11029;47.820;10.534;2022-10-12T07:21:59;31.35;;;19.45;;
21733;SDS011;11029;47.820;10.534;2022-10-12T07:24:26;27.63;;;17.50;;
21733;SDS011;11029;47.820;10.534;2022-10-12T07:27:01;30.60;;;20.52;;
21733;SDS011;11029;47.820;10.534;2022-10-12T07:29:30;31.25;;;19.50;;
21733;SDS011;11029;47.820;10.534;2022-10-12T07:31:57;30.35;;;19.52;;
21733;SDS011;11029;47.820;10.534;2022-10-12T07:34:25;25.17;;;16.67;;
21733;SDS011;11029;47.820;10.534;2022-10-12T07:36:52;25.60;;;16.67;;
21733;SDS011;11029;47.820;10.534;2022-10-12T07:39:25;23.83;;;15.98;;
21733;SDS011;11029;47.820;10.534;2022-10-12T07:41:52;22.45;;;15.00;;
21733;SDS011;11029;47.820;10.534;2022-10-12T07:44:19;21.25;;;14.93;;
21733;SDS011;11029;47.820;10.534;2022-10-12T07:46:47;25.05;;;17.40;;
21733;SDS011;11029;47.820;10.534;2022-10-12T07:49:14;24.38;;;16.95;;
21733;SDS011;11029;47.820;10.534;2022-10-12T07:51:42;20.63;;;14.73;;
21733;SDS011;11029;47.820;10.534;2022-10-12T07:54:09;24.80;;;15.60;;
21733;SDS011;11029;47.820;10.534;2022-10-12T07:56:36;34.90;;;21.58;;
21733;SDS011;11029;47.820;10.534;2022-10-12T07:59:03;29.88;;;18.55;;
21733;SDS011;11029;47.820;10.534;2022-10-12T08:01:30;38.95;;;29.27;;
21733;SDS011;11029;47.820;10.534;2022-10-12T08:03:57;32.25;;;25.73;;
21733;SDS011;11029;47.820;10.534;2022-10-12T08:06:28;22.20;;;14.48;;
21733;SDS011;11029;47.820;10.534;2022-10-12T08:08:58;22.52;;;14.82;;
21733;SDS011;11029;47.820;10.534;2022-10-12T08:11:26;25.48;;;15.02;;
21733;SDS011;11029;47.820;10.534;2022-10-12T08:13:54;21.83;;;14.00;;
21733;SDS011;11029;47.820;10.534;2022-10-12T08:16:21;21.02;;;13.68;;
21733;SDS011;11029;47.820;10.534;2022-10-12T08:18:49;21.35;;;14.90;;
21733;SDS011;11029;47.820;10.534;2022-10-12T08:21:16;24.52;;;16.45;;
21733;SDS011;11029;47.820;10.534;2022-10-12T08:23:43;25.20;;;14.60;;
21733;SDS011;11029;47.820;10.534;2022-10-12T08:26:11;23.05;;;14.68;;
21733;SDS011;11029;47.820;10.534;2022-10-12T08:28:39;23.48;;;15.68;;
21733;SDS011;11029;47.820;10.534;2022-10-12T08:31:08;26.05;;;15.20;;
21733;SDS011;11029;47.820;10.534;2022-10-12T08:36:06;24.98;;;15.48;;
21733;SDS011;11029;47.820;10.534;2022-10-12T08:38:34;23.45;;;15.23;;
21733;SDS011;11029;47.820;10.534;2022-10-12T08:46:42;22.45;;;14.57;;
21733;SDS011;11029;47.820;10.534;2022-10-12T08:49:16;24.20;;;14.18;;
21733;SDS011;11029;47.820;10.534;2022-10-12T08:51:56;19.13;;;13.38;;
21733;SDS011;11029;47.820;10.534;2022-10-12T08:54:30;22.20;;;13.95;;
21733;SDS011;11029;47.820;10.534;2022-10-12T08:57:01;22.02;;;13.48;;
21733;SDS011;11029;47.820;10.534;2022-10-12T08:59:29;20.60;;;12.43;;
21733;SDS011;11029;47.820;10.534;2022-10-12T09:12:35;21.33;;;13.82;;
21733;SDS011;11029;47.820;10.534;2022-10-12T09:15:25;20.92;;;12.60;;
21733;SDS011;11029;47.820;10.534;2022-10-12T09:17:55;19.73;;;12.95;;
21733;SDS011;11029;47.820;10.534;2022-10-12T09:20:30;17.98;;;11.93;;
21733;SDS011;11029;47.820;10.534;2022-10-12T09:25:30;21.10;;;11.52;;
21733;SDS011;11029;47.820;10.534;2022-10-12T09:28:09;24.42;;;12.57;;
21733;SDS011;11029;47.820;10.534;2022-10-12T09:30:44;18.98;;;11.68;;
21733;SDS011;11029;47.820;10.534;2022-10-12T09:34:05;15.88;;;10.95;;
21733;SDS011;11029;47.820;10.534;2022-10-12T09:36:33;20.73;;;11.02;;
21733;SDS011;11029;47.820;10.534;2022-10-12T09:39:03;15.07;;;10.20;;
21733;SDS011;11029;47.820;10.534;2022-10-12T09:41:54;14.38;;;9.82;;
21733;SDS011;11029;47.820;10.534;2022-10-12T09:44:28;16.25;;;10.32;;
21733;SDS011;11029;47.820;10.534;2022-10-12T09:47:00;16.38;;;10.00;;
21733;SDS011;11029;47.820;10.534;2022-10-12T09:52:09;19.55;;;9.55;;
21733;SDS011;11029;47.820;10.534;2022-10-12T09:54:48;14.45;;;9.10;;
21733;SDS011;11029;47.820;10.534;2022-10-12T09:57:19;14.93;;;9.13;;
21733;SDS011;11029;47.820;10.534;2022-10-12T09:59:50;22.33;;;9.25;;
21733;SDS011;11029;47.820;10.534;2022-10-12T10:02:18;17.33;;;8.60;;
21733;SDS011;11029;47.820;10.534;2022-10-12T10:04:50;19.55;;;8.68;;
21733;SDS011;11029;47.820;10.534;2022-10-12T10:12:55;41.92;;;20.55;;
21733;SDS011;11029;47.820;10.534;2022-10-12T10:15:31;30.83;;;15.45;;
21733;SDS011;11029;47.820;10.534;2022-10-12T10:18:01;39.80;;;19.42;;
21733;SDS011;11029;47.820;10.534;2022-10-12T10:20:50;25.45;;;13.25;;
21733;SDS011;11029;47.820;10.534;2022-10-12T10:23:31;13.18;;;8.38;;
21733;SDS011;11029;47.820;10.534;2022-10-12T10:26:06;11.65;;;7.30;;
21733;SDS011;11029;47.820;10.534;2022-10-12T10:28:42;11.55;;;7.55;;
21733;SDS011;11029;47.820;10.534;2022-10-12T10:33:38;13.27;;;10.55;;
21733;SDS011;11029;47.820;10.534;2022-10-12T10:36:08;12.18;;;8.05;;
21733;SDS011;11029;47.820;10.534;2022-10-12T10:38:59;10.18;;;6.15;;
21733;SDS011;11029;47.820;10.534;2022-10-12T10:41:48;12.38;;;7.13;;
21733;SDS011;11029;47.820;10.534;2022-10-12T10:46:56;10.98;;;6.72;;
21733;SDS011;11029;47.820;10.534;2022-10-12T10:49:37;10.13;;;6.68;;
21733;SDS011;11029;47.820;10.534;2022-10-12T10:52:32;12.68;;;7.18;;
21733;SDS011;11029;47.820;10.534;2022-10-12T10:57:37;12.98;;;6.70;;
21733;SDS011;11029;47.820;10.534;2022-10-12T11:00:16;8.98;;;6.50;;
21733;SDS011;11029;47.820;10.534;2022-10-12T11:05:50;11.80;;;6.95;;
21733;SDS011;11029;47.820;10.534;2022-10-12T11:08:22;10.10;;;5.28;;
21733;SDS011;11029;47.820;10.534;2022-10-12T11:10:56;12.07;;;6.47;;
21733;SDS011;11029;47.820;10.534;2022-10-12T11:13:32;15.80;;;7.68;;
21733;SDS011;11029;47.820;10.534;2022-10-12T11:21:10;7.13;;;5.15;;
21733;SDS011;11029;47.820;10.534;2022-10-12T11:23:44;9.60;;;6.20;;
21733;SDS011;11029;47.820;10.534;2022-10-12T11:26:30;11.65;;;6.35;;
21733;SDS011;11029;47.820;10.534;2022-10-12T11:29:03;10.57;;;6.32;;
21733;SDS011;11029;47.820;10.534;2022-10-12T11:31:38;11.85;;;7.40;;
21733;SDS011;11029;47.820;10.534;2022-10-12T11:34:12;11.52;;;7.15;;
21733;SDS011;11029;47.820;10.534;2022-10-12T11:36:44;13.35;;;6.40;;
21733;SDS011;11029;47.820;10.534;2022-10-12T11:39:34;11.25;;;6.47;;
21733;SDS011;11029;47.820;10.534;2022-10-12T11:42:05;10.35;;;5.90;;
21733;SDS011;11029;47.820;10.534;2022-10-12T11:44:52;12.63;;;6.97;;
21733;SDS011;11029;47.820;10.534;2022-10-12T11:50:01;12.45;;;6.32;;
21733;SDS011;11029;47.820;10.534;2022-10-12T11:52:50;15.35;;;6.47;;
21733;SDS011;11029;47.820;10.534;2022-10-12T12:01:21;10.07;;;5.60;;
21733;SDS011;11029;47.820;10.534;2022-10-12T12:04:12;9.30;;;5.43;;
21733;SDS011;11029;47.820;10.534;2022-10-12T12:09:48;15.70;;;6.25;;
21733;SDS011;11029;47.820;10.534;2022-10-12T12:14:58;10.95;;;5.70;;
21733;SDS011;11029;47.820;10.534;2022-10-12T12:17:32;10.77;;;5.50;;
21733;SDS011;11029;47.820;10.534;2022-10-12T12:20:00;12.00;;;5.47;;
21733;SDS011;11029;47.820;10.534;2022-10-12T12:22:49;10.35;;;6.07;;
21733;SDS011;11029;47.820;10.534;2022-10-12T12:25:18;9.85;;;5.20;;
21733;SDS011;11029;47.820;10.534;2022-10-12T12:27:55;10.82;;;5.88;;
21733;SDS011;11029;47.820;10.534;2022-10-12T12:30:30;10.80;;;4.85;;
21733;SDS011;11029;47.820;10.534;2022-10-12T12:35:52;11.32;;;5.97;;
21733;SDS011;11029;47.820;10.534;2022-10-12T12:38:29;8.73;;;4.72;;
21733;SDS011;11029;47.820;10.534;2022-10-12T12:46:17;13.45;;;5.10;;
21733;SDS011;11029;47.820;10.534;2022-10-12T12:51:19;10.88;;;7.18;;
21733;SDS011;11029;47.820;10.534;2022-10-12T12:53:52;12.27;;;7.05;;
21733;SDS011;11029;47.820;10.534;2022-10-12T13:02:39;9.05;;;4.80;;
21733;SDS011;11029;47.820;10.534;2022-10-12T13:08:11;11.55;;;6.55;;
21733;SDS011;11029;47.820;10.534;2022-10-12T13:10:47;16.02;;;5.25;;
21733;SDS011;11029;47.820;10.534;2022-10-12T13:16:11;12.40;;;5.07;;
21733;SDS011;11029;47.820;10.534;2022-10-12T13:19:09;11.35;;;5.22;;
21733;SDS011;11029;47.820;10.534;2022-10-12T13:21:39;11.65;;;5.32;;
21733;SDS011;11029;47.820;10.534;2022-10-12T13:24:15;9.90;;;4.68;;
21733;SDS011;11029;47.820;10.534;2022-10-12T13:29:15;11.38;;;4.97;;
21733;SDS011;11029;47.820;10.534;2022-10-12T13:32:03;11.67;;;5.83;;
21733;SDS011;11029;47.820;10.534;2022-10-12T13:34:37;10.98;;;5.65;;
21733;SDS011;11029;47.820;10.534;2022-10-12T13:37:10;13.70;;;6.88;;
21733;SDS011;11029;47.820;10.534;2022-10-12T13:39:40;10.82;;;6.47;;
21733;SDS011;11029;47.820;10.534;2022-10-12T13:42:08;11.93;;;6.18;;
21733;SDS011;11029;47.820;10.534;2022-10-12T13:44:43;11.07;;;5.97;;
21733;SDS011;11029;47.820;10.534;2022-10-12T13:47:27;9.82;;;6.10;;
21733;SDS011;11029;47.820;10.534;2022-10-12T13:49:56;14.60;;;6.53;;
21733;SDS011;11029;47.820;10.534;2022-10-12T13:52:28;12.00;;;5.38;;
21733;SDS011;11029;47.820;10.534;2022-10-12T13:54:58;9.93;;;5.75;;
21733;SDS011;11029;47.820;10.534;2022-10-12T13:57:38;8.75;;;5.38;;
21733;SDS011;11029;47.820;10.534;2022-10-12T14:00:23;10.38;;;6.20;;
21733;SDS011;11029;47.820;10.534;2022-10-12T14:02:57;11.88;;;6.75;;
21733;SDS011;11029;47.820;10.534;2022-10-12T14:05:28;10.90;;;6.88;;
21733;SDS011;11029;47.820;10.534;2022-10-12T14:07:58;11.65;;;6.63;;
21733;SDS011;11029;47.820;10.534;2022-10-12T14:10:29;14.35;;;7.85;;
21733;SDS011;11029;47.820;10.534;2022-10-12T14:13:01;13.38;;;7.07;;
21733;SDS011;11029;47.820;10.534;2022-10-12T14:15:33;10.13;;;6.55;;
21733;SDS011;11029;47.820;10.534;2022-10-12T14:18:03;12.57;;;6.50;;
21733;SDS011;11029;47.820;10.534;2022-10-12T14:20:50;15.98;;;7.47;;
21733;SDS011;11029;47.820;10.534;2022-10-12T14:23:31;14.45;;;6.68;;
21733;SDS011;11029;47.820;10.534;2022-10-12T14:25:58;13.40;;;6.53;;
21733;SDS011;11029;47.820;10.534;2022-10-12T14:28:31;14.32;;;6.90;;
21733;SDS011;11029;47.820;10.534;2022-10-12T14:31:00;15.40;;;6.70;;
21733;SDS011;11029;47.820;10.534;2022-10-12T14:33:28;12.60;;;6.78;;
21733;SDS011;11029;47.820;10.534;2022-10-12T14:38:50;15.70;;;6.47;;
21733;SDS011;11029;47.820;10.534;2022-10-12T14:49:24;13.93;;;7.53;;
21733;SDS011;11029;47.820;10.534;2022-10-12T14:52:04;16.45;;;7.28;;
21733;SDS011;11029;47.820;10.534;2022-10-12T14:54:32;22.63;;;7.43;;
21733;SDS011;11029;47.820;10.534;2022-10-12T14:57:00;13.30;;;7.10;;
21733;SDS011;11029;47.820;10.534;2022-10-12T14:59:39;13.52;;;7.47;;
21733;SDS011;11029;47.820;10.534;2022-10-12T15:02:11;10.68;;;6.55;;
21733;SDS011;11029;47.820;10.534;2022-10-12T15:04:44;10.00;;;6.57;;
21733;SDS011;11029;47.820;10.534;2022-10-12T15:07:12;16.80;;;7.22;;
21733;SDS011;11029;47.820;10.534;2022-10-12T15:09:43;13.48;;;7.13;;
21733;SDS011;11029;47.820;10.534;2022-10-12T15:12:11;14.30;;;7.30;;
21733;SDS011;11029;47.820;10.534;2022-10-12T15:14:40;13.52;;;7.22;;
21733;SDS011;11029;47.820;10.534;2022-10-12T15:17:09;10.70;;;6.47;;
21733;SDS011;11029;47.820;10.534;2022-10-12T15:19:38;15.85;;;6.38;;
21733;SDS011;11029;47.820;10.534;2022-10-12T15:22:06;14.18;;;6.15;;
21733;SDS011;11029;47.820;10.534;2022-10-12T15:24:35;13.00;;;6.10;;
21733;SDS011;11029;47.820;10.534;2022-10-12T15:27:01;13.15;;;6.53;;
21733;SDS011;11029;47.820;10.534;2022-10-12T15:29:28;12.93;;;6.63;;
21733;SDS011;11029;47.820;10.534;2022-10-12T15:31:55;15.18;;;7.38;;
21733;SDS011;11029;47.820;10.534;2022-10-12T15:34:23;12.48;;;6.07;;
21733;SDS011;11029;47.820;10.534;2022-10-12T15:36:51;12.15;;;6.63;;
21733;SDS011;11029;47.820;10.534;2022-10-12T15:39:17;18.30;;;7.22;;
21733;SDS011;11029;47.820;10.534;2022-10-12T15:41:44;9.80;;;6.47;;
21733;SDS011;11029;47.820;10.534;2022-10-12T15:44:12;11.43;;;6.55;;
21733;SDS011;11029;47.820;10.534;2022-10-12T15:46:40;10.65;;;6.50;;
21733;SDS011;11029;47.820;10.534;2022-10-12T15:49:08;11.90;;;6.28;;
21733;SDS011;11029;47.820;10.534;2022-10-12T15:51:39;12.23;;;5.90;;
21733;SDS011;11029;47.820;10.534;2022-10-12T15:54:14;14.13;;;7.35;;
21733;SDS011;11029;47.820;10.534;2022-10-12T15:56:41;17.83;;;7.43;;
21733;SDS011;11029;47.820;10.534;2022-10-12T15:59:10;16.35;;;7.28;;
21733;SDS011;11029;47.820;10.534;2022-10-12T16:01:36;15.75;;;6.75;;
21733;SDS011;11029;47.820;10.534;2022-10-12T16:04:04;16.95;;;6.95;;
21733;SDS011;11029;47.820;10.534;2022-10-12T16:06:31;10.02;;;6.20;;
21733;SDS011;11029;47.820;10.534;2022-10-12T16:08:58;12.75;;;6.38;;
21733;SDS011;11029;47.820;10.534;2022-10-12T16:11:25;13.35;;;7.35;;
21733;SDS011;11029;47.820;10.534;2022-10-12T16:13:51;16.33;;;7.60;;
21733;SDS011;11029;47.820;10.534;2022-10-12T16:16:22;11.98;;;7.40;;
21733;SDS011;11029;47.820;10.534;2022-10-12T16:18:49;13.20;;;7.70;;
21733;SDS011;11029;47.820;10.534;2022-10-12T16:21:18;15.73;;;7.20;;
21733;SDS011;11029;47.820;10.534;2022-10-12T16:23:45;13.10;;;6.90;;
21733;SDS011;11029;47.820;10.534;2022-10-12T16:26:12;15.90;;;8.25;;
21733;SDS011;11029;47.820;10.534;2022-10-12T16:28:40;13.98;;;8.25;;
21733;SDS011;11029;47.820;10.534;2022-10-12T16:31:11;16.17;;;8.43;;
21733;SDS011;11029;47.820;10.534;2022-10-12T16:33:40;18.02;;;9.77;;
21733;SDS011;11029;47.820;10.534;2022-10-12T16:36:11;12.80;;;7.93;;